createdAt,value
2022-10-17T00:05:23.351Z,6.10
2022-10-17T00:11:26.375Z,5.37
2022-10-17T00:17:39.443Z,4.53
2022-10-17T00:23:41.343Z,5.63
2022-10-17T00:29:44.258Z,5.73
2022-10-17T00:35:46.340Z,4.67
2022-10-17T00:41:48.347Z,4.30
2022-10-17T00:48:04.292Z,10.03
2022-10-17T00:54:07.238Z,9.77
2022-10-17T01:00:12.067Z,7.30
2022-10-17T01:06:14.125Z,7.13
2022-10-17T01:12:25.432Z,8.07
2022-10-17T01:18:33.937Z,6.37
2022-10-17T01:25:01.009Z,5.97
2022-10-17T01:31:16.699Z,5.07
2022-10-17T01:37:28.759Z,6.07
2022-10-17T01:44:05.413Z,5.60
2022-10-17T01:50:17.027Z,5.97
2022-10-17T01:56:22.202Z,6.93
2022-10-17T02:02:26.693Z,5.20
2022-10-17T02:08:43.059Z,5.03
2022-10-17T02:14:56.832Z,5.23
2022-10-17T02:21:08.771Z,5.03
2022-10-17T02:27:19.941Z,5.00
2022-10-17T02:33:28.042Z,5.93
2022-10-17T02:39:31.911Z,4.90
2022-10-17T02:45:36.969Z,5.53
2022-10-17T02:51:57.032Z,6.93
2022-10-17T02:58:13.347Z,6.27
2022-10-17T03:04:15.842Z,5.27
2022-10-17T03:10:18.485Z,4.97
2022-10-17T03:16:20.269Z,5.03
2022-10-17T03:22:22.118Z,6.13
2022-10-17T03:28:24.354Z,5.33
2022-10-17T03:34:26.266Z,7.10
2022-10-17T03:40:28.467Z,5.33
2022-10-17T03:46:30.403Z,6.17
2022-10-17T03:52:32.226Z,5.30
2022-10-17T03:58:34.013Z,4.73
2022-10-17T04:04:35.884Z,5.40
2022-10-17T04:10:37.817Z,4.73
2022-10-17T04:16:39.796Z,11.37
2022-10-17T04:22:41.597Z,11.30
2022-10-17T04:28:43.396Z,7.27
2022-10-17T04:34:49.176Z,6.37
2022-10-17T04:40:51.060Z,8.70
2022-10-17T04:46:52.949Z,5.53
2022-10-17T04:52:54.832Z,6.57
2022-10-17T04:58:59.562Z,6.37
2022-10-17T05:05:01.900Z,7.90
2022-10-17T05:11:22.371Z,9.43
2022-10-17T05:17:34.592Z,6.90
2022-10-17T06:03:37.037Z,19.83
2022-10-17T07:19:50.713Z,8.37
2022-10-17T07:33:08.209Z,8.90
2022-10-17T07:46:42.988Z,8.33
2022-10-17T07:52:51.978Z,8.63
2022-10-17T07:59:08.251Z,8.37
2022-10-17T09:13:51.481Z,6.83
2022-10-17T09:20:25.072Z,6.40
2022-10-17T15:42:11.892Z,12.83
2022-10-17T15:56:00.330Z,12.80
2022-10-17T16:09:41.814Z,22.33
2022-10-17T16:15:50.541Z,33.80
2022-10-17T16:35:37.594Z,16.47
2022-10-17T16:41:58.718Z,22.90
2022-10-17T16:54:43.074Z,39.27
2022-10-17T17:07:14.880Z,34.70
2022-10-17T17:13:40.990Z,37.47
2022-10-17T17:20:12.725Z,28.63
2022-10-17T17:26:17.864Z,25.60
2022-10-17T17:32:27.908Z,22.33
2022-10-17T17:38:49.731Z,17.73
2022-10-17T17:59:45.960Z,23.57
2022-10-17T18:06:16.907Z,18.67
2022-10-17T18:12:32.641Z,20.00
2022-10-17T18:18:42.462Z,28.53
2022-10-17T18:24:50.436Z,31.70
2022-10-17T18:30:52.417Z,25.50
2022-10-17T18:36:58.163Z,20.80
2022-10-17T18:43:04.478Z,16.47
2022-10-17T18:49:07.849Z,15.23
2022-10-17T19:01:33.083Z,13.73
2022-10-17T19:07:41.812Z,20.57
2022-10-17T19:13:47.982Z,16.70
2022-10-17T19:20:02.451Z,14.77
2022-10-17T19:26:12.505Z,21.13
2022-10-17T19:32:29.125Z,20.70
2022-10-17T19:52:02.032Z,14.50
2022-10-17T19:58:15.764Z,12.83
2022-10-17T20:04:22.106Z,13.87
2022-10-17T20:10:28.851Z,21.57
2022-10-17T20:23:18.567Z,27.17
2022-10-17T20:29:30.062Z,26.17
2022-10-17T20:35:33.898Z,28.40
2022-10-17T20:41:35.976Z,27.37
2022-10-17T20:47:52.283Z,21.97
2022-10-17T20:59:59.467Z,22.77
2022-10-17T21:06:07.649Z,17.87
2022-10-17T21:12:49.939Z,17.57
2022-10-17T21:18:59.337Z,21.73
2022-10-17T21:25:01.846Z,14.40
2022-10-17T21:31:20.698Z,11.40
2022-10-17T21:37:29.516Z,9.70
2022-10-17T21:43:40.145Z,12.33
2022-10-17T21:49:43.916Z,13.00
2022-10-17T21:55:46.052Z,12.37
2022-10-17T22:01:50.433Z,12.10
2022-10-17T22:08:01.411Z,11.97
2022-10-17T22:20:30.135Z,11.30
2022-10-17T22:26:45.146Z,11.13
2022-10-17T22:33:25.891Z,10.77
2022-10-17T22:39:36.182Z,10.10
2022-10-17T22:45:40.726Z,9.20
2022-10-17T22:51:46.169Z,9.70
2022-10-17T22:57:51.438Z,11.33
2022-10-17T23:04:00.045Z,14.83
2022-10-17T23:10:02.358Z,14.70
2022-10-17T23:16:05.537Z,11.53
2022-10-17T23:22:10.870Z,11.20
2022-10-17T23:28:15.847Z,11.67
2022-10-17T23:34:22.142Z,14.57
2022-10-17T23:40:29.568Z,13.07
2022-10-17T23:46:49.933Z,11.73
2022-10-17T23:52:55.380Z,10.47
2022-10-17T23:59:06.016Z,9.87
